createdAt,value
2022-10-13T00:00:05.435Z,9.15
2022-10-13T00:02:31.832Z,9.50
2022-10-13T00:04:58.184Z,9.43
2022-10-13T00:07:24.548Z,8.88
2022-10-13T00:09:50.918Z,8.82
2022-10-13T00:12:18.122Z,10.13
2022-10-13T00:14:44.623Z,9.80
2022-10-13T00:17:10.993Z,10.55
2022-10-13T00:19:37.403Z,10.70
2022-10-13T00:22:03.761Z,10.15
2022-10-13T00:24:30.276Z,9.00
2022-10-13T00:26:56.647Z,9.68
2022-10-13T00:29:23.016Z,9.82
2022-10-13T00:31:49.410Z,9.95
2022-10-13T00:34:15.772Z,10.13
2022-10-13T00:36:42.125Z,9.07
2022-10-13T00:39:08.537Z,10.25
2022-10-13T00:41:34.901Z,10.15
2022-10-13T00:44:06.718Z,10.20
2022-10-13T00:46:37.140Z,9.55
2022-10-13T00:49:08.757Z,10.00
2022-10-13T00:51:40.045Z,10.13
2022-10-13T00:54:07.252Z,9.63
2022-10-13T00:56:34.914Z,9.32
2022-10-13T00:59:01.547Z,9.90
2022-10-13T01:01:27.985Z,10.35
2022-10-13T01:03:54.361Z,10.85
2022-10-13T01:06:23.577Z,10.65
2022-10-13T01:08:50.842Z,10.77
2022-10-13T01:11:39.401Z,10.50
2022-10-13T01:14:35.413Z,11.20
2022-10-13T01:17:26.705Z,10.77
2022-10-13T01:20:00.823Z,9.23
2022-10-13T01:22:36.918Z,10.23
2022-10-13T01:25:11.533Z,10.40
2022-10-13T01:28:05.146Z,10.60
2022-10-13T01:30:45.601Z,10.80
2022-10-13T01:33:24.655Z,10.35
2022-10-13T01:36:16.637Z,10.20
2022-10-13T01:38:47.413Z,10.70
2022-10-13T01:41:18.793Z,10.30
2022-10-13T01:43:51.401Z,9.52
2022-10-13T01:46:22.617Z,10.18
2022-10-13T01:48:52.092Z,10.75
2022-10-13T01:51:19.348Z,10.48
2022-10-13T01:53:47.079Z,10.32
2022-10-13T01:56:13.741Z,10.65
2022-10-13T01:58:40.334Z,10.82
2022-10-13T02:01:15.210Z,10.35
2022-10-13T02:04:00.392Z,9.70
2022-10-13T02:06:35.201Z,11.07
2022-10-13T02:09:26.394Z,11.00
2022-10-13T02:12:02.062Z,9.85
2022-10-13T02:14:30.364Z,9.77
2022-10-13T02:17:00.326Z,9.73
2022-10-13T02:19:27.727Z,10.23
2022-10-13T02:21:54.405Z,10.45
2022-10-13T02:24:20.772Z,10.63
2022-10-13T02:26:47.476Z,9.73
2022-10-13T02:29:15.437Z,9.60
2022-10-13T02:31:42.340Z,10.10
2022-10-13T02:34:08.749Z,10.15
2022-10-13T02:36:37.718Z,10.73
2022-10-13T02:39:05.205Z,11.02
2022-10-13T02:41:31.637Z,10.70
2022-10-13T02:43:58.004Z,10.05
2022-10-13T02:46:24.427Z,10.20
2022-10-13T02:48:50.809Z,9.82
2022-10-13T02:51:17.185Z,10.35
2022-10-13T02:53:43.780Z,10.80
2022-10-13T02:56:10.313Z,10.75
2022-10-13T02:58:36.689Z,10.73
2022-10-13T03:01:07.996Z,11.07
2022-10-13T03:03:34.706Z,10.73
2022-10-13T03:06:01.145Z,11.73
2022-10-13T03:08:27.520Z,10.60
2022-10-13T03:10:53.952Z,11.10
2022-10-13T03:13:21.106Z,10.77
2022-10-13T03:15:47.610Z,10.20
2022-10-13T03:18:14.107Z,11.90
2022-10-13T03:20:40.637Z,10.77
2022-10-13T03:23:07.055Z,10.60
2022-10-13T03:25:34.251Z,11.00
2022-10-13T03:28:00.600Z,11.10
2022-10-13T03:30:27.056Z,11.43
2022-10-13T03:32:53.455Z,11.02
2022-10-13T03:35:19.846Z,11.02
2022-10-13T03:37:46.337Z,10.48
2022-10-13T03:40:12.797Z,10.45
2022-10-13T03:42:39.483Z,11.00
2022-10-13T03:45:06.277Z,11.25
2022-10-13T03:47:35.269Z,10.35
2022-10-13T03:50:01.793Z,11.10
2022-10-13T03:52:28.150Z,11.00
2022-10-13T03:54:54.505Z,11.30
2022-10-13T03:57:20.861Z,11.98
2022-10-13T03:59:47.280Z,11.55
2022-10-13T04:02:13.762Z,10.75
2022-10-13T04:04:40.269Z,10.90
2022-10-13T04:07:08.320Z,11.25
2022-10-13T04:09:34.974Z,10.70
2022-10-13T04:12:01.346Z,11.27
2022-10-13T04:14:27.721Z,11.68
2022-10-13T04:16:54.130Z,10.60
2022-10-13T04:19:20.498Z,11.45
2022-10-13T04:21:46.857Z,13.57
2022-10-13T04:24:13.590Z,10.98
2022-10-13T04:26:40.135Z,11.73
2022-10-13T04:29:08.608Z,11.10
2022-10-13T04:31:35.646Z,11.75
2022-10-13T04:34:02.005Z,11.10
2022-10-13T04:36:28.567Z,11.70
2022-10-13T04:38:55.416Z,12.18
2022-10-13T04:41:23.462Z,12.25
2022-10-13T04:43:50.891Z,11.27
2022-10-13T04:46:19.825Z,12.02
2022-10-13T04:48:46.527Z,12.07
2022-10-13T04:51:15.629Z,11.60
2022-10-13T04:53:42.131Z,11.70
2022-10-13T04:56:15.189Z,12.10
2022-10-13T04:58:42.943Z,11.48
2022-10-13T05:01:17.586Z,12.73
2022-10-13T05:03:46.846Z,12.52
2022-10-13T05:06:15.186Z,12.32
2022-10-13T05:08:41.738Z,12.23
2022-10-13T05:11:08.100Z,13.15
2022-10-13T05:13:34.502Z,12.80
2022-10-13T05:16:00.922Z,12.63
2022-10-13T05:18:27.285Z,11.75
2022-10-13T05:20:53.936Z,13.00
2022-10-13T05:23:20.313Z,12.60
2022-10-13T05:25:46.673Z,12.10
2022-10-13T05:28:13.271Z,12.68
2022-10-13T05:30:39.923Z,12.85
2022-10-13T05:33:06.289Z,12.70
2022-10-13T05:35:32.762Z,12.93
2022-10-13T05:37:59.172Z,12.65
2022-10-13T05:40:25.580Z,13.15
2022-10-13T05:42:52.426Z,13.25
2022-10-13T05:45:19.829Z,13.60
2022-10-13T05:47:46.219Z,13.65
2022-10-13T05:50:12.585Z,12.88
2022-10-13T05:52:39.265Z,13.43
2022-10-13T05:55:08.471Z,13.50
2022-10-13T05:57:37.393Z,12.68
2022-10-13T06:00:17.557Z,13.25
2022-10-13T06:02:55.732Z,13.80
2022-10-13T06:05:24.315Z,13.88
2022-10-13T06:07:50.802Z,13.23
2022-10-13T06:10:17.579Z,14.43
2022-10-13T06:12:44.106Z,14.43
2022-10-13T06:15:10.744Z,13.50
2022-10-13T06:17:38.298Z,13.13
2022-10-13T06:20:06.171Z,13.13
2022-10-13T06:22:36.449Z,13.88
2022-10-13T06:25:04.457Z,14.43
2022-10-13T06:27:31.191Z,13.70
2022-10-13T06:29:57.800Z,16.00
2022-10-13T06:32:24.166Z,14.13
2022-10-13T06:34:50.904Z,14.90
2022-10-13T06:37:17.370Z,14.55
2022-10-13T06:39:43.773Z,14.07
2022-10-13T06:42:10.205Z,15.48
2022-10-13T06:44:36.585Z,14.27
2022-10-13T06:47:04.056Z,15.40
2022-10-13T06:49:30.435Z,16.00
2022-10-13T06:51:56.856Z,15.25
2022-10-13T06:54:23.222Z,15.25
2022-10-13T06:56:49.753Z,15.75
2022-10-13T06:59:16.124Z,14.88
2022-10-13T07:01:42.524Z,14.65
2022-10-13T07:04:09.488Z,14.80
2022-10-13T07:06:35.987Z,13.23
2022-10-13T07:09:06.873Z,15.75
2022-10-13T07:11:33.478Z,14.75
2022-10-13T07:16:31.446Z,15.13
2022-10-13T07:19:05.326Z,16.42
2022-10-13T07:21:31.781Z,15.90
2022-10-13T07:23:58.194Z,16.02
2022-10-13T07:26:24.608Z,16.13
2022-10-13T07:28:51.063Z,16.75
2022-10-13T07:31:19.464Z,16.85
2022-10-13T07:33:48.083Z,15.88
2022-10-13T07:36:14.777Z,16.38
2022-10-13T07:38:41.374Z,17.40
2022-10-13T07:41:10.113Z,16.77
2022-10-13T07:43:36.477Z,18.63
2022-10-13T07:46:06.675Z,19.10
2022-10-13T07:48:33.499Z,18.00
2022-10-13T07:51:03.978Z,18.23
2022-10-13T07:53:30.382Z,21.20
2022-10-13T07:56:00.708Z,19.38
2022-10-13T07:58:27.755Z,20.38
2022-10-13T08:01:01.549Z,21.13
2022-10-13T08:03:28.781Z,20.35
2022-10-13T08:05:55.756Z,19.27
2022-10-13T08:08:22.156Z,21.13
2022-10-13T08:10:48.533Z,19.90
2022-10-13T08:13:14.978Z,19.05
2022-10-13T08:15:42.675Z,19.23
2022-10-13T08:18:10.247Z,19.70
2022-10-13T08:20:43.849Z,19.83
2022-10-13T08:23:11.274Z,21.73
2022-10-13T08:25:41.273Z,20.35
2022-10-13T08:28:17.154Z,20.85
2022-10-13T08:33:10.088Z,18.60
2022-10-13T08:35:36.486Z,20.58
2022-10-13T08:38:02.869Z,20.40
2022-10-13T08:40:29.306Z,20.70
2022-10-13T08:43:00.233Z,19.30
2022-10-13T08:45:40.935Z,19.90
2022-10-13T08:48:33.913Z,18.77
2022-10-13T08:51:03.820Z,19.00
2022-10-13T08:53:33.878Z,20.83
2022-10-13T08:56:15.627Z,19.70
2022-10-13T08:58:42.828Z,18.30
2022-10-13T09:01:09.140Z,18.13
2022-10-13T09:03:55.705Z,19.73
2022-10-13T09:06:28.714Z,17.60
2022-10-13T09:09:06.920Z,18.42
2022-10-13T09:11:38.949Z,15.85
2022-10-13T09:14:08.209Z,18.95
2022-10-13T09:16:43.212Z,17.88
2022-10-13T09:19:23.359Z,17.02
2022-10-13T09:22:42.232Z,19.98
2022-10-13T09:25:11.633Z,17.77
2022-10-13T09:27:52.961Z,18.75
2022-10-13T09:30:38.253Z,19.75
2022-10-13T09:33:04.519Z,17.70
2022-10-13T09:35:34.259Z,19.35
2022-10-13T09:40:32.143Z,18.42
2022-10-13T09:43:00.501Z,18.73
2022-10-13T09:45:27.860Z,19.08
2022-10-13T09:48:04.614Z,18.23
2022-10-13T09:50:31.925Z,20.00
2022-10-13T09:53:34.078Z,19.25
2022-10-13T09:56:19.608Z,13.88
2022-10-13T09:59:04.453Z,18.52
2022-10-13T10:01:35.023Z,17.23
2022-10-13T10:04:11.690Z,17.38
2022-10-13T10:06:38.945Z,18.85
2022-10-13T10:09:14.570Z,15.93
2022-10-13T10:11:43.460Z,18.67
2022-10-13T10:14:17.173Z,19.00
2022-10-13T10:16:47.952Z,16.58
2022-10-13T10:19:24.944Z,16.77
2022-10-13T10:22:33.460Z,17.08
2022-10-13T10:25:29.808Z,18.17
2022-10-13T10:28:17.225Z,16.10
2022-10-13T10:30:48.808Z,15.82
2022-10-13T10:33:22.000Z,16.67
2022-10-13T10:36:16.808Z,15.02
2022-10-13T10:38:48.268Z,15.63
2022-10-13T10:41:26.833Z,15.38
2022-10-13T10:43:57.099Z,16.13
2022-10-13T10:46:25.894Z,16.48
2022-10-13T10:48:55.210Z,14.70
2022-10-13T10:51:28.391Z,14.20
2022-10-13T10:53:57.772Z,13.60
2022-10-13T10:56:40.821Z,14.35
2022-10-13T10:59:13.227Z,14.57
2022-10-13T11:01:47.998Z,13.13
2022-10-13T11:04:39.479Z,12.27
2022-10-13T11:07:43.651Z,14.20
2022-10-13T11:10:10.037Z,14.50
2022-10-13T11:12:53.259Z,16.42
2022-10-13T11:15:25.561Z,12.90
2022-10-13T11:17:52.171Z,11.45
2022-10-13T11:20:21.633Z,12.95
2022-10-13T11:22:59.954Z,12.00
2022-10-13T11:25:39.872Z,11.93
2022-10-13T11:28:21.793Z,13.32
2022-10-13T11:30:55.367Z,12.05
2022-10-13T11:33:39.956Z,12.65
2022-10-13T11:36:28.540Z,11.18
2022-10-13T11:39:06.971Z,10.93
2022-10-13T11:41:52.585Z,10.45
2022-10-13T11:44:30.563Z,11.88
2022-10-13T11:47:15.904Z,11.10
2022-10-13T11:50:12.077Z,11.68
2022-10-13T11:53:07.371Z,11.43
2022-10-13T11:55:51.948Z,12.05
2022-10-13T11:58:30.038Z,13.00
2022-10-13T12:01:11.010Z,12.35
2022-10-13T12:03:45.475Z,11.88
2022-10-13T12:06:34.137Z,11.25
2022-10-13T12:09:03.041Z,12.68
2022-10-13T12:11:32.469Z,12.90
2022-10-13T12:14:00.559Z,12.10
2022-10-13T12:16:28.857Z,11.50
2022-10-13T12:19:07.462Z,12.95
2022-10-13T12:21:34.175Z,13.07
2022-10-13T12:24:09.481Z,13.77
2022-10-13T12:26:35.891Z,13.48
2022-10-13T12:29:03.247Z,14.23
2022-10-13T12:31:46.873Z,13.68
2022-10-13T12:34:35.806Z,13.55
2022-10-13T12:37:11.496Z,13.60
2022-10-13T12:39:38.349Z,14.25
2022-10-13T12:42:07.408Z,15.15
2022-10-13T12:44:34.181Z,14.95
2022-10-13T12:47:03.558Z,15.80
2022-10-13T12:49:32.124Z,15.18
2022-10-13T12:52:23.887Z,15.95
2022-10-13T12:54:52.745Z,16.42
2022-10-13T12:57:22.822Z,16.33
2022-10-13T12:59:49.396Z,16.70
2022-10-13T13:02:28.891Z,15.00
2022-10-13T13:04:56.041Z,14.63
2022-10-13T13:07:28.611Z,15.13
2022-10-13T13:10:08.138Z,15.07
2022-10-13T13:12:36.347Z,14.82
2022-10-13T13:15:30.797Z,15.05
2022-10-13T13:18:35.787Z,16.23
2022-10-13T13:21:04.571Z,15.85
2022-10-13T13:23:34.431Z,15.70
2022-10-13T13:26:15.073Z,14.40
2022-10-13T13:28:49.652Z,13.00
2022-10-13T13:31:35.057Z,12.38
2022-10-13T13:34:03.853Z,11.70
2022-10-13T13:36:31.116Z,12.10
2022-10-13T13:39:03.145Z,11.30
2022-10-13T13:41:31.245Z,11.50
2022-10-13T13:44:03.147Z,11.32
2022-10-13T13:46:32.347Z,11.50
2022-10-13T13:49:03.473Z,10.88
2022-10-13T13:51:30.045Z,10.73
2022-10-13T13:54:04.453Z,11.18
2022-10-13T13:56:30.958Z,11.43
2022-10-13T13:59:01.260Z,11.45
2022-10-13T14:01:32.787Z,12.65
2022-10-13T14:04:01.011Z,11.02
2022-10-13T14:06:29.480Z,12.23
2022-10-13T14:09:03.164Z,12.07
2022-10-13T14:11:54.219Z,12.00
2022-10-13T14:14:23.855Z,11.32
2022-10-13T14:17:19.873Z,12.70
2022-10-13T14:19:50.356Z,11.82
2022-10-13T14:22:16.826Z,12.73
2022-10-13T14:24:51.050Z,12.57
2022-10-13T14:27:24.146Z,12.65
2022-10-13T14:30:09.909Z,13.27
2022-10-13T14:32:39.762Z,12.65
2022-10-13T14:35:06.563Z,11.95
2022-10-13T14:37:40.389Z,13.52
2022-10-13T14:40:12.487Z,12.77
2022-10-13T14:42:39.564Z,12.88
2022-10-13T14:45:06.577Z,13.52
2022-10-13T14:47:33.072Z,13.70
2022-10-13T14:50:01.945Z,12.70
2022-10-13T14:52:28.446Z,13.48
2022-10-13T14:54:56.025Z,12.88
2022-10-13T14:57:23.069Z,12.23
2022-10-13T14:59:49.995Z,12.82
2022-10-13T15:02:16.906Z,13.65
2022-10-13T15:04:45.652Z,13.80
2022-10-13T15:07:12.247Z,13.57
2022-10-13T15:09:52.447Z,14.43
2022-10-13T15:12:22.553Z,14.85
2022-10-13T15:14:51.836Z,15.40
2022-10-13T15:17:18.260Z,14.27
2022-10-13T15:19:44.710Z,14.50
2022-10-13T15:22:15.262Z,13.15
2022-10-13T15:24:42.313Z,14.57
2022-10-13T15:27:09.853Z,13.57
2022-10-13T15:29:36.260Z,13.85
2022-10-13T15:32:11.549Z,14.27
2022-10-13T15:34:39.610Z,14.15
2022-10-13T15:37:06.543Z,12.88
2022-10-13T15:39:32.943Z,14.13
2022-10-13T15:41:59.369Z,10.48
2022-10-13T15:44:26.247Z,10.07
2022-10-13T15:47:07.364Z,9.77
2022-10-13T15:49:39.332Z,10.40
2022-10-13T15:52:05.790Z,10.40
2022-10-13T15:54:32.275Z,10.60
2022-10-13T15:56:58.657Z,9.82
2022-10-13T15:59:25.541Z,9.40
2022-10-13T16:01:51.948Z,8.27
2022-10-13T16:04:18.321Z,8.70
2022-10-13T16:06:44.777Z,8.73
2022-10-13T16:09:11.232Z,8.77
2022-10-13T16:11:37.632Z,8.60
2022-10-13T16:14:08.134Z,9.82
2022-10-13T16:16:34.664Z,9.45
2022-10-13T16:19:01.124Z,9.90
2022-10-13T16:21:27.703Z,9.25
2022-10-13T16:23:54.516Z,9.57
2022-10-13T16:26:21.383Z,11.52
2022-10-13T16:28:48.011Z,11.02
2022-10-13T16:31:16.502Z,10.10
2022-10-13T16:33:44.476Z,9.93
2022-10-13T16:36:13.253Z,10.02
2022-10-13T16:38:39.609Z,10.82
2022-10-13T16:41:12.070Z,9.88
2022-10-13T16:43:38.505Z,10.02
2022-10-13T16:46:06.877Z,10.93
2022-10-13T16:48:33.274Z,11.95
2022-10-13T16:51:09.348Z,11.82
2022-10-13T16:53:35.955Z,12.30
2022-10-13T16:56:04.733Z,12.45
2022-10-13T16:58:31.288Z,12.60
2022-10-13T17:01:08.904Z,12.70
2022-10-13T17:03:39.188Z,12.75
2022-10-13T17:06:06.882Z,12.50
2022-10-13T17:08:33.523Z,12.50
2022-10-13T17:11:00.445Z,13.85
2022-10-13T17:13:32.294Z,13.85
2022-10-13T17:15:59.993Z,16.33
2022-10-13T17:18:27.815Z,14.68
2022-10-13T17:20:56.184Z,16.83
2022-10-13T17:23:23.914Z,13.63
2022-10-13T17:25:52.449Z,13.15
2022-10-13T17:28:19.580Z,12.93
2022-10-13T17:30:56.528Z,13.13
2022-10-13T17:33:23.021Z,12.18
2022-10-13T17:35:49.531Z,12.68
2022-10-13T17:38:15.929Z,12.93
2022-10-13T17:40:42.459Z,12.23
2022-10-13T17:43:08.943Z,9.65
2022-10-13T17:45:35.333Z,10.90
2022-10-13T17:48:01.799Z,9.52
2022-10-13T17:50:29.209Z,9.27
2022-10-13T17:52:55.593Z,9.95
2022-10-13T17:55:21.989Z,10.25
2022-10-13T17:57:48.732Z,10.65
2022-10-13T18:00:15.935Z,9.73
2022-10-13T18:02:42.384Z,9.48
2022-10-13T18:05:09.015Z,10.73
2022-10-13T18:07:35.540Z,11.07
2022-10-13T18:10:05.416Z,11.52
2022-10-13T18:12:32.499Z,11.02
2022-10-13T18:14:58.999Z,11.80
2022-10-13T18:17:25.474Z,11.48
2022-10-13T18:19:53.156Z,10.77
2022-10-13T18:22:19.647Z,12.63
2022-10-13T18:24:46.295Z,11.38
2022-10-13T18:27:15.377Z,11.57
2022-10-13T18:29:42.604Z,11.85
2022-10-13T18:32:09.137Z,12.40
2022-10-13T18:34:36.143Z,14.82
2022-10-13T18:37:05.464Z,11.75
2022-10-13T18:39:34.286Z,11.45
2022-10-13T18:42:00.796Z,14.55
2022-10-13T18:44:27.462Z,14.02
2022-10-13T18:46:56.337Z,12.48
2022-10-13T18:49:30.580Z,14.52
2022-10-13T18:51:58.539Z,14.52
2022-10-13T18:54:25.420Z,14.50
2022-10-13T18:56:52.764Z,16.05
2022-10-13T18:59:19.562Z,16.55
2022-10-13T19:01:46.024Z,18.67
2022-10-13T19:04:14.659Z,17.90
2022-10-13T19:06:41.224Z,18.30
2022-10-13T19:09:10.270Z,17.45
2022-10-13T19:11:37.219Z,20.17
2022-10-13T19:14:05.739Z,19.58
2022-10-13T19:16:35.752Z,20.95
2022-10-13T19:19:02.226Z,25.38
2022-10-13T19:21:28.624Z,21.73
2022-10-13T19:23:58.593Z,17.80
2022-10-13T19:26:29.702Z,21.58
2022-10-13T19:29:01.773Z,21.27
2022-10-13T19:31:31.000Z,20.65
2022-10-13T19:33:58.186Z,22.23
2022-10-13T19:36:27.517Z,19.17
2022-10-13T19:38:54.559Z,21.90
2022-10-13T19:41:21.087Z,23.30
2022-10-13T19:43:47.541Z,23.25
2022-10-13T19:46:14.014Z,24.15
2022-10-13T19:48:40.454Z,23.92
2022-10-13T19:51:08.210Z,25.73
2022-10-13T19:53:35.681Z,25.13
2022-10-13T19:56:02.199Z,25.17
2022-10-13T19:58:28.972Z,26.30
2022-10-13T20:00:55.463Z,27.25
2022-10-13T20:03:21.852Z,26.60
2022-10-13T20:05:48.352Z,26.35
2022-10-13T20:08:14.974Z,22.90
2022-10-13T20:10:42.789Z,21.58
2022-10-13T20:13:10.247Z,26.60
2022-10-13T20:15:41.741Z,25.63
2022-10-13T20:18:09.472Z,33.17
2022-10-13T20:20:41.567Z,31.05
2022-10-13T20:23:08.887Z,32.25
2022-10-13T20:25:37.342Z,31.52
2022-10-13T20:28:04.231Z,25.90
2022-10-13T20:30:30.687Z,28.92
2022-10-13T20:32:57.482Z,26.17
2022-10-13T20:35:23.909Z,25.45
2022-10-13T20:37:50.268Z,25.48
2022-10-13T20:40:16.647Z,18.85
2022-10-13T20:42:43.018Z,24.52
2022-10-13T20:45:09.996Z,23.23
2022-10-13T20:47:36.363Z,24.23
2022-10-13T20:50:04.760Z,21.70
2022-10-13T20:52:31.118Z,23.83
2022-10-13T20:54:57.483Z,25.80
2022-10-13T20:57:24.643Z,23.50
2022-10-13T20:59:51.135Z,25.67
2022-10-13T21:02:17.681Z,23.20
2022-10-13T21:04:44.067Z,28.95
2022-10-13T21:07:10.529Z,27.98
2022-10-13T21:09:36.992Z,27.02
2022-10-13T21:12:03.683Z,25.05
2022-10-13T21:14:30.198Z,25.55
2022-10-13T21:16:56.606Z,25.92
2022-10-13T21:19:23.039Z,24.58
2022-10-13T21:21:49.457Z,25.15
2022-10-13T21:24:15.815Z,25.92
2022-10-13T21:26:42.181Z,23.35
2022-10-13T21:29:08.543Z,22.30
2022-10-13T21:31:35.380Z,23.52
2022-10-13T21:34:01.839Z,27.70
2022-10-13T21:36:30.187Z,22.63
2022-10-13T21:39:00.188Z,25.77
2022-10-13T21:41:27.159Z,26.27
2022-10-13T21:43:53.814Z,25.38
2022-10-13T21:46:28.196Z,22.60
2022-10-13T21:48:56.723Z,22.17
2022-10-13T21:51:34.875Z,26.10
2022-10-13T21:54:04.078Z,29.30
2022-10-13T21:56:32.369Z,23.85
2022-10-13T21:58:59.220Z,26.92
2022-10-13T22:01:25.923Z,24.45
2022-10-13T22:03:54.998Z,24.92
2022-10-13T22:06:21.575Z,22.35
2022-10-13T22:08:50.083Z,22.88
2022-10-13T22:11:17.943Z,24.23
2022-10-13T22:13:44.421Z,21.10
2022-10-13T22:16:22.296Z,23.88
2022-10-13T22:18:51.483Z,23.70
2022-10-13T22:21:20.538Z,21.52
2022-10-13T22:23:47.547Z,22.63
2022-10-13T22:26:15.252Z,24.58
2022-10-13T22:28:42.557Z,20.98
2022-10-13T22:31:11.612Z,20.92
2022-10-13T22:33:41.095Z,22.80
2022-10-13T22:36:08.825Z,22.05
2022-10-13T22:38:35.484Z,22.23
2022-10-13T22:41:05.965Z,20.65
2022-10-13T22:43:32.861Z,21.80
2022-10-13T22:45:59.445Z,20.45
2022-10-13T22:48:25.881Z,19.45
2022-10-13T22:50:52.252Z,20.48
2022-10-13T22:53:18.645Z,21.13
2022-10-13T22:55:45.166Z,21.55
2022-10-13T22:58:11.749Z,20.70
2022-10-13T23:00:38.801Z,24.88
2022-10-13T23:03:11.057Z,18.90
2022-10-13T23:05:42.487Z,19.05
2022-10-13T23:08:09.624Z,18.85
2022-10-13T23:10:36.753Z,19.95
2022-10-13T23:13:04.217Z,19.80
2022-10-13T23:15:30.646Z,24.75
2022-10-13T23:17:57.031Z,20.75
2022-10-13T23:20:23.629Z,18.23
2022-10-13T23:22:50.033Z,19.73
2022-10-13T23:25:16.409Z,17.08
2022-10-13T23:27:42.775Z,18.08
2022-10-13T23:30:09.676Z,18.08
2022-10-13T23:32:37.087Z,17.23
2022-10-13T23:35:03.528Z,17.48
2022-10-13T23:37:29.932Z,17.50
2022-10-13T23:39:56.295Z,16.52
2022-10-13T23:42:22.670Z,17.52
2022-10-13T23:44:49.030Z,16.10
2022-10-13T23:47:15.410Z,19.55
2022-10-13T23:49:41.858Z,15.88
2022-10-13T23:52:10.893Z,16.20
2022-10-13T23:54:37.644Z,16.23
2022-10-13T23:57:04.101Z,13.23
2022-10-13T23:59:30.460Z,13.93
